KIGQ

Lansing Municipal Airport

Chicago, Illinois, USA
METAR KIGQ 190935Z AUTO 04006KT 10SM CLR 19/17 A3001 RMK AO2 T01910172
Observed Flight Rules
Sep-19 @ 09:35 UTC (7 minutes ago) Visual Flight Rules
Wind Visibility Clouds
40° at 6 knots 10 miles
  • Clear skies
Temperatures Readings
Current 19°C / 66°F
Dewpoint 17°C / 63°F
Humidity 88%
Altimeter 30.01" Hg
Pressure 1016 hPa
Elevation 188
METAR KIGQ 190935Z AUTO 04006KT 10SM CLR 19/17 A3001 RMK AO2 T01910172
Observed Flight Rules
Sep-19 @ 09:35 UTC
(7 minutes ago)
VFR
Wind Visibility
40° at 6 knots 10 miles
Clouds
  • Clear skies
Temperature Dewpoint
19°C / 66°F 17°C / 63°F
Humidity Altimeter Pressure
88% 30.01" Hg 1016 hPa